Derby Field Lovelock US
ICAO: KLOL
IATA: LOL
Category: Medium
Scheduled Services: No

Elevation: 3904 ft
TransAlt. 18000 ft.

Airport Communications:
ASOS:120.675
OAKLAND CNTR:128.8
RENO RDO:122.4
CTAF/UNICOM:122.8

KLOL Zoom In..

Runways:

(A) RW 02 length 5529 ft width 75 ft
---- / hdg 16

(B) RW 08 length 4931 ft width 75 ft
---- / hdg 76

(C) RW 20 length 5529 ft width 75 ft
---- / hdg 196

(D) RW 26 length 4931 ft width 75 ft
---- / hdg 256

Location; KLOL
Day. 29 / Time. 02.53 Zulu
* Altimeter: 29.96
* Temperature: 32° c. 89.6°f.
* Wind from: 300° Speed 10 kn.
Dewpoint: -07° c.
Visibility: 10 Statute Miles.
Clouds: Clear (automated report).

KLOL 290253Z AUTO 30010KT 10SM CLR 32/M07 A2996 RMK AO2 SLP098 T03221072 55001 $


Wind From 300°
Speed 10 kn.

 
 
jpsmedia worldairports.se 2020   terms of use